createdAt,value
2023-01-02T00:01:32.775Z,34.20
2023-01-02T00:04:05.109Z,31.20
2023-01-02T00:06:38.969Z,35.10
2023-01-02T00:09:12.267Z,32.50
2023-01-02T00:11:44.533Z,30.70
2023-01-02T00:14:16.755Z,33.20
2023-01-02T00:16:49.011Z,31.30
2023-01-02T00:19:21.190Z,35.60
2023-01-02T00:21:53.392Z,36.00
2023-01-02T00:24:26.037Z,34.60
2023-01-02T00:26:58.210Z,34.50
2023-01-02T00:29:30.403Z,37.90
2023-01-02T00:32:02.691Z,31.80
2023-01-02T00:34:34.915Z,34.00
2023-01-02T00:37:07.195Z,31.30
2023-01-02T00:39:39.471Z,31.40
2023-01-02T00:42:11.673Z,28.60
2023-01-02T00:44:44.051Z,32.40
2023-01-02T00:47:16.317Z,32.90
2023-01-02T00:49:48.595Z,33.90
2023-01-02T00:52:20.826Z,32.80
2023-01-02T00:54:53.056Z,35.40
2023-01-02T00:57:25.353Z,34.10
2023-01-02T00:59:57.908Z,30.90
2023-01-02T01:02:30.251Z,34.00
2023-01-02T01:05:02.675Z,32.50
2023-01-02T01:07:34.925Z,30.50
2023-01-02T01:10:08.701Z,33.60
2023-01-02T01:12:40.940Z,32.40
2023-01-02T01:15:16.136Z,33.70
2023-01-02T01:17:48.383Z,32.60
2023-01-02T01:20:20.821Z,32.20
2023-01-02T01:22:53.104Z,35.90
2023-01-02T01:25:25.335Z,36.70
2023-01-02T01:27:57.640Z,35.00
2023-01-02T01:30:31.950Z,37.60
2023-01-02T01:33:04.276Z,34.00
2023-01-02T01:35:37.459Z,32.80
2023-01-02T01:38:09.687Z,34.00
2023-01-02T01:40:42.202Z,33.60
2023-01-02T01:43:17.782Z,33.90
2023-01-02T01:45:50.022Z,35.40
2023-01-02T01:48:22.434Z,32.20
2023-01-02T01:50:55.050Z,34.40
2023-01-02T01:53:27.672Z,33.80
2023-01-02T01:56:04.318Z,32.90
2023-01-02T01:58:43.223Z,30.40
2023-01-02T02:01:17.986Z,29.80
2023-01-02T02:03:52.694Z,31.30
2023-01-02T02:06:24.935Z,35.10
2023-01-02T02:09:02.949Z,31.40
2023-01-02T02:11:35.735Z,31.00
2023-01-02T02:14:08.002Z,32.30
2023-01-02T02:16:48.682Z,29.40
2023-01-02T02:19:44.326Z,33.40
2023-01-02T02:22:57.143Z,29.10
2023-01-02T02:25:56.209Z,25.90
2023-01-02T02:29:06.118Z,30.30
2023-01-02T02:31:49.541Z,29.20
2023-01-02T02:34:28.437Z,30.70
2023-01-02T02:37:10.519Z,34.90
2023-01-02T02:39:53.466Z,30.00
2023-01-02T02:42:34.724Z,34.80
2023-01-02T02:45:15.481Z,32.70
2023-01-02T02:47:56.760Z,31.70
2023-01-02T02:50:35.078Z,33.90
2023-01-02T02:53:11.600Z,32.30
2023-01-02T02:55:49.163Z,30.00
2023-01-02T02:58:23.593Z,34.20
2023-01-02T03:01:05.226Z,36.30
2023-01-02T03:03:37.679Z,33.00
2023-01-02T03:06:25.567Z,32.90
2023-01-02T03:09:12.296Z,36.10
2023-01-02T03:11:55.593Z,32.70
2023-01-02T03:14:39.630Z,35.70
2023-01-02T03:17:21.381Z,35.10
2023-01-02T03:19:59.942Z,35.90
2023-01-02T03:22:37.975Z,36.60
2023-01-02T03:25:14.023Z,34.70
2023-01-02T03:27:49.672Z,38.10
2023-01-02T03:30:23.786Z,35.20
2023-01-02T03:33:01.784Z,34.50
2023-01-02T03:35:38.810Z,36.50
2023-01-02T03:38:15.666Z,37.30
2023-01-02T03:40:54.875Z,39.50
2023-01-02T03:43:31.968Z,38.40
2023-01-02T03:46:12.392Z,39.50
2023-01-02T03:48:50.563Z,33.60
2023-01-02T03:51:23.017Z,37.30
2023-01-02T03:53:55.875Z,36.20
2023-01-02T03:56:35.420Z,38.90
2023-01-02T03:59:17.006Z,33.60
2023-01-02T04:01:55.809Z,36.60
2023-01-02T04:04:38.775Z,37.20
2023-01-02T04:07:20.007Z,39.30
2023-01-02T04:09:53.448Z,32.90
2023-01-02T04:12:29.330Z,39.60
2023-01-02T04:15:05.178Z,37.10
2023-01-02T04:20:14.656Z,36.20
2023-01-02T04:22:53.641Z,33.00
2023-01-02T04:25:31.178Z,30.20
2023-01-02T04:28:09.023Z,32.90
2023-01-02T04:30:47.881Z,28.10
2023-01-02T04:33:23.589Z,31.50
2023-01-02T04:35:55.918Z,30.50
2023-01-02T04:38:28.079Z,30.10
2023-01-02T04:41:00.386Z,32.80
2023-01-02T04:43:32.635Z,28.30
2023-01-02T04:46:05.039Z,28.40
2023-01-02T04:48:37.256Z,28.80
2023-01-02T04:51:09.559Z,25.10
2023-01-02T04:53:41.827Z,26.00
2023-01-02T04:56:13.981Z,30.20
2023-01-02T04:58:47.617Z,29.80
2023-01-02T05:01:22.087Z,27.70
2023-01-02T05:03:54.441Z,30.70
2023-01-02T05:06:26.689Z,33.20
2023-01-02T05:08:59.664Z,31.60
2023-01-02T05:11:31.886Z,28.80
2023-01-02T05:14:07.614Z,31.30
2023-01-02T05:16:40.345Z,27.30
2023-01-02T05:19:12.895Z,30.30
2023-01-02T05:22:02.661Z,28.30
2023-01-02T05:24:35.185Z,29.60
2023-01-02T05:27:07.574Z,27.50
2023-01-02T05:29:39.738Z,32.20
2023-01-02T05:32:11.925Z,28.20
2023-01-02T05:34:44.214Z,33.00
2023-01-02T05:37:16.486Z,32.20
2023-01-02T05:39:48.664Z,29.90
2023-01-02T05:42:20.880Z,32.00
2023-01-02T05:44:53.166Z,30.00
2023-01-02T05:47:25.364Z,35.10
2023-01-02T05:49:57.578Z,34.80
2023-01-02T05:52:29.773Z,35.20
2023-01-02T05:55:01.975Z,31.70
2023-01-02T05:57:35.297Z,32.30
2023-01-02T06:00:09.245Z,30.50
2023-01-02T06:02:47.148Z,33.30
2023-01-02T06:05:20.679Z,35.70
2023-01-02T06:07:52.881Z,33.00
2023-01-02T06:10:25.053Z,30.20
2023-01-02T06:12:57.355Z,30.40
2023-01-02T06:15:29.583Z,29.00
2023-01-02T06:18:02.431Z,33.40
2023-01-02T06:20:34.702Z,31.60
2023-01-02T06:23:06.974Z,32.60
2023-01-02T06:25:39.207Z,32.80
2023-01-02T06:28:11.875Z,30.20
2023-01-02T06:30:44.181Z,33.70
2023-01-02T06:33:16.372Z,32.20
2023-01-02T06:35:48.564Z,28.00
2023-01-02T06:38:20.729Z,30.10
2023-01-02T06:40:57.323Z,32.40
2023-01-02T06:43:30.320Z,30.00
2023-01-02T06:46:04.451Z,29.50
2023-01-02T06:48:37.195Z,29.80
2023-01-02T06:51:12.022Z,31.00
2023-01-02T06:53:45.054Z,29.50
2023-01-02T06:56:19.790Z,31.50
2023-01-02T06:58:52.051Z,29.90
2023-01-02T07:01:25.150Z,33.50
2023-01-02T07:03:57.588Z,31.40
2023-01-02T07:06:29.869Z,32.30
2023-01-02T07:09:02.072Z,32.10
2023-01-02T07:11:35.884Z,28.00
2023-01-02T07:14:08.112Z,30.30
2023-01-02T07:16:40.344Z,30.90
2023-01-02T07:19:12.751Z,28.60
2023-01-02T07:21:45.174Z,33.20
2023-01-02T07:24:17.833Z,31.00
2023-01-02T07:26:50.222Z,29.10
2023-01-02T07:29:22.483Z,27.40
2023-01-02T07:31:55.035Z,30.70
2023-01-02T07:34:27.354Z,32.70
2023-01-02T07:36:59.506Z,32.40
2023-01-02T07:39:31.708Z,31.10
2023-01-02T07:42:03.959Z,31.50
2023-01-02T07:44:36.254Z,32.10
2023-01-02T07:47:08.505Z,31.70
2023-01-02T07:49:40.675Z,32.40
2023-01-02T07:52:13.261Z,28.70
2023-01-02T07:54:45.582Z,29.30
2023-01-02T07:57:17.785Z,30.00
2023-01-02T07:59:50.345Z,30.10
2023-01-02T08:02:22.773Z,28.50
2023-01-02T08:04:55.138Z,24.40
2023-01-02T08:07:27.312Z,24.40
2023-01-02T08:09:59.502Z,26.70
2023-01-02T08:12:31.695Z,26.90
2023-01-02T08:15:03.868Z,30.40
2023-01-02T08:17:36.132Z,27.20
2023-01-02T08:20:11.412Z,25.90
2023-01-02T08:22:43.685Z,30.80
2023-01-02T08:25:15.984Z,26.50
2023-01-02T08:27:48.197Z,26.90
2023-01-02T08:30:20.574Z,28.80
2023-01-02T08:32:52.745Z,25.10
2023-01-02T08:35:37.295Z,27.50
2023-01-02T08:38:10.470Z,28.30
2023-01-02T08:40:42.659Z,23.90
2023-01-02T08:43:16.320Z,25.80
2023-01-02T08:45:48.805Z,26.90
2023-01-02T08:48:21.730Z,30.00
2023-01-02T08:50:54.188Z,26.80
2023-01-02T08:53:26.382Z,24.90
2023-01-02T08:56:17.395Z,28.10
2023-01-02T08:58:53.030Z,26.00
2023-01-02T09:03:58.473Z,26.90
2023-01-02T09:06:32.861Z,25.50
2023-01-02T09:09:11.003Z,25.90
2023-01-02T09:11:50.268Z,25.30
2023-01-02T09:14:23.562Z,28.00
2023-01-02T09:16:58.178Z,25.70
2023-01-02T09:19:30.998Z,27.80
2023-01-02T09:22:04.337Z,25.00
2023-01-02T09:24:36.533Z,24.80
2023-01-02T09:27:08.695Z,23.50
2023-01-02T09:29:40.904Z,25.90
2023-01-02T09:32:13.223Z,25.40
2023-01-02T09:34:50.479Z,25.00
2023-01-02T09:37:22.945Z,27.20
2023-01-02T09:39:55.133Z,27.00
2023-01-02T09:42:27.798Z,24.00
2023-01-02T09:45:08.558Z,23.50
2023-01-02T09:47:42.965Z,22.80
2023-01-02T09:50:19.839Z,20.60
2023-01-02T09:52:57.422Z,22.50
2023-01-02T09:55:46.608Z,23.50
2023-01-02T09:58:32.729Z,25.00
2023-01-02T10:01:10.776Z,20.30
2023-01-02T10:03:52.893Z,22.50
2023-01-02T10:06:28.519Z,19.40
2023-01-02T10:09:10.548Z,17.90
2023-01-02T10:11:55.006Z,20.40
2023-01-02T10:14:44.158Z,20.60
2023-01-02T10:17:18.427Z,19.60
2023-01-02T10:19:57.741Z,18.50
2023-01-02T10:22:37.259Z,19.10
2023-01-02T10:25:15.958Z,17.10
2023-01-02T10:27:53.375Z,16.50
2023-01-02T10:30:28.438Z,15.90
2023-01-02T10:33:05.593Z,20.20
2023-01-02T10:35:43.161Z,17.10
2023-01-02T10:38:17.817Z,15.80
2023-01-02T10:40:52.963Z,18.20
2023-01-02T10:43:25.194Z,16.80
2023-01-02T10:45:57.898Z,14.50
2023-01-02T10:48:34.987Z,13.70
2023-01-02T10:51:13.815Z,15.40
2023-01-02T10:53:59.895Z,16.40
2023-01-02T10:59:05.567Z,13.10
2023-01-02T11:01:53.260Z,17.20
2023-01-02T11:04:28.596Z,14.40
2023-01-02T11:07:02.938Z,14.60
2023-01-02T11:09:37.182Z,12.60
2023-01-02T11:12:15.096Z,13.20
2023-01-02T11:14:47.418Z,15.60
2023-01-02T11:17:21.838Z,14.50
2023-01-02T11:19:56.363Z,13.80
2023-01-02T11:22:39.300Z,12.70
2023-01-02T11:25:22.242Z,14.20
2023-01-02T11:27:57.965Z,13.30
2023-01-02T11:30:37.565Z,13.30
2023-01-02T11:33:20.951Z,11.30
2023-01-02T11:35:56.437Z,11.40
2023-01-02T11:38:41.440Z,11.00
2023-01-02T11:41:46.091Z,10.50
2023-01-02T11:44:23.374Z,14.60
2023-01-02T11:46:57.506Z,14.20
2023-01-02T11:49:37.041Z,11.00
2023-01-02T11:52:14.194Z,14.70
2023-01-02T11:54:53.940Z,11.70
2023-01-02T11:57:37.370Z,13.60
2023-01-02T12:00:15.960Z,13.00
2023-01-02T12:02:50.387Z,12.80
2023-01-02T12:05:39.064Z,12.90
2023-01-02T12:08:22.742Z,12.90
2023-01-02T12:11:06.345Z,15.50
2023-01-02T12:13:54.788Z,13.90
2023-01-02T12:16:38.299Z,13.80
2023-01-02T12:19:36.855Z,14.10
2023-01-02T12:22:30.326Z,14.80
2023-01-02T12:25:24.783Z,12.90
2023-01-02T12:28:04.106Z,11.80
2023-01-02T12:30:46.025Z,12.40
2023-01-02T12:33:41.646Z,13.10
2023-01-02T12:36:37.147Z,17.40
2023-01-02T12:39:42.987Z,15.60
2023-01-02T12:42:31.881Z,15.00
2023-01-02T12:45:04.662Z,15.50
2023-01-02T12:47:48.152Z,14.90
2023-01-02T12:50:34.721Z,16.50
2023-01-02T12:53:22.719Z,16.30
2023-01-02T12:56:07.060Z,13.90
2023-01-02T12:58:56.938Z,15.10
2023-01-02T13:01:36.888Z,16.40
2023-01-02T13:04:16.545Z,17.20
2023-01-02T13:06:59.264Z,19.10
2023-01-02T13:09:36.852Z,16.30
2023-01-02T13:12:14.879Z,17.10
2023-01-02T13:14:52.168Z,16.80
2023-01-02T13:17:47.363Z,18.20
2023-01-02T13:20:34.096Z,16.80
2023-01-02T13:23:24.883Z,19.00
2023-01-02T13:26:01.043Z,16.60
2023-01-02T13:28:34.088Z,17.60
2023-01-02T13:31:44.827Z,18.10
2023-01-02T13:34:11.056Z,20.60
2023-01-02T13:36:46.201Z,18.90
2023-01-02T13:39:22.522Z,19.90
2023-01-02T13:42:14.638Z,19.70
2023-01-02T13:44:49.703Z,19.60
2023-01-02T13:47:33.842Z,20.50
2023-01-02T13:50:15.717Z,19.40
2023-01-02T13:53:01.403Z,23.10
2023-01-02T13:55:36.542Z,22.10
2023-01-02T13:58:39.891Z,19.50
2023-01-02T14:01:48.833Z,18.90
2023-01-02T14:04:39.885Z,18.80
2023-01-02T14:07:49.321Z,19.30
2023-01-02T14:10:34.198Z,21.10
2023-01-02T14:13:24.231Z,20.00
2023-01-02T14:16:21.191Z,21.90
2023-01-02T14:19:25.721Z,20.50
2023-01-02T14:22:11.851Z,22.30
2023-01-02T14:27:27.354Z,19.70
2023-01-02T14:30:05.051Z,20.20
2023-01-02T14:32:42.403Z,21.90
2023-01-02T14:35:31.505Z,21.40
2023-01-02T14:38:19.061Z,18.20
2023-01-02T14:40:52.306Z,22.50
2023-01-02T14:43:31.826Z,18.10
2023-01-02T14:46:14.508Z,22.30
2023-01-02T14:48:55.142Z,19.90
2023-01-02T14:51:36.989Z,21.60
2023-01-02T14:54:16.919Z,22.00
2023-01-02T14:56:54.366Z,22.50
2023-01-02T14:59:31.698Z,21.90
2023-01-02T15:02:09.935Z,21.40
2023-01-02T15:04:47.601Z,22.50
2023-01-02T15:07:28.829Z,22.70
2023-01-02T15:10:05.781Z,23.80
2023-01-02T15:13:05.097Z,24.40
2023-01-02T15:15:41.637Z,20.60
2023-01-02T15:18:21.039Z,22.30
2023-01-02T15:20:54.542Z,23.00
2023-01-02T15:23:28.364Z,20.70
2023-01-02T15:26:31.907Z,25.10
2023-01-02T15:28:59.798Z,22.30
2023-01-02T15:31:32.309Z,24.60
2023-01-02T15:34:04.498Z,25.10
2023-01-02T15:36:40.062Z,25.20
2023-01-02T15:39:18.495Z,25.60
2023-01-02T15:41:54.278Z,23.80
2023-01-02T15:47:18.194Z,23.20
2023-01-02T15:49:52.460Z,24.90
2023-01-02T15:52:27.310Z,24.50
2023-01-02T15:55:00.405Z,26.70
2023-01-02T15:57:33.655Z,27.00
2023-01-02T16:00:27.545Z,25.00
2023-01-02T16:02:59.910Z,24.90
2023-01-02T16:05:45.342Z,25.30
2023-01-02T16:08:23.301Z,26.60
2023-01-02T16:11:01.552Z,22.70
2023-01-02T16:13:54.884Z,21.80
2023-01-02T16:16:35.398Z,27.10
2023-01-02T16:19:07.561Z,28.80
2023-01-02T16:21:39.937Z,26.40
2023-01-02T16:24:18.006Z,29.40
2023-01-02T16:26:50.827Z,27.30
2023-01-02T16:29:26.580Z,25.70
2023-01-02T16:32:00.688Z,26.90
2023-01-02T16:34:38.107Z,26.10
2023-01-02T16:37:36.057Z,25.40
2023-01-02T16:41:00.298Z,23.00
2023-01-02T16:43:41.258Z,26.10
2023-01-02T16:46:17.369Z,22.10
2023-01-02T16:48:49.722Z,24.70
2023-01-02T16:51:22.157Z,25.60
2023-01-02T16:53:54.417Z,26.90
2023-01-02T16:56:26.724Z,25.70
2023-01-02T16:58:58.994Z,30.80
2023-01-02T17:01:31.314Z,24.90
2023-01-02T17:04:03.633Z,30.00
2023-01-02T17:06:36.735Z,31.20
2023-01-02T17:09:11.484Z,36.20
2023-01-02T17:12:00.356Z,38.70
2023-01-02T17:14:34.731Z,36.30
2023-01-02T17:17:06.889Z,38.70
2023-01-02T17:19:39.117Z,37.10
2023-01-02T17:22:11.320Z,38.80
2023-01-02T17:24:43.746Z,39.60
2023-01-02T17:27:16.251Z,36.30
2023-01-02T17:29:48.425Z,35.30
2023-01-02T17:32:20.668Z,37.00
2023-01-02T17:34:53.356Z,39.30
2023-01-02T17:37:25.732Z,31.20
2023-01-02T17:39:58.076Z,33.50
2023-01-02T17:42:31.272Z,35.60
2023-01-02T17:45:03.935Z,32.00
2023-01-02T17:50:28.414Z,35.60
2023-01-02T17:53:01.120Z,33.20
2023-01-02T17:55:33.342Z,36.10
2023-01-02T17:58:05.717Z,33.70
2023-01-02T18:00:37.945Z,31.30
2023-01-02T18:03:10.206Z,32.60
2023-01-02T18:05:42.522Z,32.50
2023-01-02T18:08:14.854Z,33.90
2023-01-02T18:10:47.192Z,31.60
2023-01-02T18:13:19.374Z,32.00
2023-01-02T18:15:52.068Z,31.10
2023-01-02T18:18:26.094Z,31.40
2023-01-02T18:20:58.653Z,33.70
2023-01-02T18:23:30.845Z,40.20
2023-01-02T18:26:06.644Z,32.80
2023-01-02T18:28:41.526Z,30.30
2023-01-02T18:31:19.047Z,32.60
2023-01-02T18:33:51.747Z,30.20
2023-01-02T18:36:28.366Z,29.30
2023-01-02T18:39:21.077Z,28.80
2023-01-02T18:41:54.611Z,31.10
2023-01-02T18:44:31.566Z,34.90
2023-01-02T18:47:21.270Z,27.80
2023-01-02T18:49:54.330Z,25.70
2023-01-02T18:52:31.630Z,29.10
2023-01-02T18:55:17.396Z,28.00
2023-01-02T18:57:56.248Z,32.00
2023-01-02T19:00:30.846Z,31.20
2023-01-02T19:03:05.736Z,27.60
2023-01-02T19:05:40.828Z,35.10
2023-01-02T19:08:23.732Z,29.80
2023-01-02T19:10:58.045Z,32.70
2023-01-02T19:13:32.885Z,32.10
2023-01-02T19:16:08.262Z,34.30
2023-01-02T19:18:43.167Z,29.30
2023-01-02T19:21:25.563Z,31.20
2023-01-02T19:24:00.793Z,29.10
2023-01-02T19:26:37.497Z,33.00
2023-01-02T19:29:19.373Z,31.70
2023-01-02T19:31:55.232Z,32.40
2023-01-02T19:37:31.503Z,31.00
2023-01-02T19:40:08.183Z,33.10
2023-01-02T19:42:43.010Z,31.50
2023-01-02T19:45:18.463Z,29.80
2023-01-02T19:47:51.689Z,31.70
2023-01-02T19:50:25.931Z,29.60
2023-01-02T19:52:58.275Z,38.00
2023-01-02T19:55:30.480Z,35.40
2023-01-02T19:58:02.763Z,36.50
2023-01-02T20:00:35.400Z,35.40
2023-01-02T20:03:07.782Z,40.00
2023-01-02T20:05:40.104Z,37.30
2023-01-02T20:08:12.352Z,40.80
2023-01-02T20:10:44.550Z,34.10
2023-01-02T20:13:16.759Z,37.20
2023-01-02T20:15:48.995Z,33.70
2023-01-02T20:18:21.213Z,34.00
2023-01-02T20:20:53.510Z,35.50
2023-01-02T20:23:25.763Z,39.70
2023-01-02T20:25:57.914Z,37.10
2023-01-02T20:28:31.772Z,32.40
2023-01-02T20:31:04.063Z,33.80
2023-01-02T20:33:36.424Z,36.60
2023-01-02T20:36:13.747Z,32.70
2023-01-02T20:38:46.305Z,34.10
2023-01-02T20:41:18.555Z,38.60
2023-01-02T20:43:50.752Z,38.60
2023-01-02T20:46:22.974Z,39.10
2023-01-02T20:48:55.189Z,38.60
2023-01-02T20:51:27.432Z,35.70
2023-01-02T20:54:00.488Z,31.50
2023-01-02T20:56:33.013Z,32.20
2023-01-02T20:59:05.438Z,31.60
2023-01-02T21:01:37.756Z,32.70
2023-01-02T21:04:10.262Z,32.90
2023-01-02T21:06:42.545Z,38.30
2023-01-02T21:09:14.800Z,33.40
2023-01-02T21:11:47.039Z,38.00
2023-01-02T21:14:19.413Z,31.80
2023-01-02T21:16:51.644Z,33.50
2023-01-02T21:19:23.907Z,35.20
2023-01-02T21:21:56.090Z,35.40
2023-01-02T21:24:28.451Z,36.20
2023-01-02T21:27:00.714Z,35.00
2023-01-02T21:29:32.872Z,30.80
2023-01-02T21:32:05.147Z,32.20
2023-01-02T21:34:37.357Z,35.80
2023-01-02T21:37:09.562Z,31.50
2023-01-02T21:39:41.857Z,35.70
2023-01-02T21:42:19.860Z,34.80
2023-01-02T21:44:52.029Z,34.30
2023-01-02T21:47:24.309Z,33.30
2023-01-02T21:49:56.671Z,35.60
2023-01-02T21:52:28.973Z,33.90
2023-01-02T21:55:01.308Z,32.10
2023-01-02T21:58:03.223Z,33.50
2023-01-02T22:00:29.381Z,32.10
2023-01-02T22:03:01.715Z,29.90
2023-01-02T22:05:34.210Z,32.60
2023-01-02T22:08:06.675Z,29.50
2023-01-02T22:10:39.290Z,29.10
2023-01-02T22:13:11.459Z,27.50
2023-01-02T22:15:45.770Z,26.70
2023-01-02T22:18:18.240Z,26.50
2023-01-02T22:20:50.442Z,28.70
2023-01-02T22:23:22.606Z,28.60
2023-01-02T22:25:54.811Z,24.90
2023-01-02T22:28:27.144Z,29.20
2023-01-02T22:30:59.419Z,27.00
2023-01-02T22:33:31.700Z,28.50
2023-01-02T22:36:03.861Z,29.40
2023-01-02T22:38:43.856Z,27.70
2023-01-02T22:41:29.734Z,27.70
2023-01-02T22:44:03.510Z,27.90
2023-01-02T22:46:40.221Z,26.70
2023-01-02T22:49:16.277Z,23.70
2023-01-02T22:52:06.686Z,25.80
2023-01-02T22:54:39.910Z,24.20
2023-01-02T22:57:16.080Z,23.00
2023-01-02T22:59:48.445Z,22.10
2023-01-02T23:02:22.562Z,26.60
2023-01-02T23:04:54.784Z,30.00
2023-01-02T23:07:26.996Z,26.90
2023-01-02T23:09:59.308Z,26.90
2023-01-02T23:12:31.435Z,34.00
2023-01-02T23:15:03.630Z,27.70
2023-01-02T23:17:53.179Z,28.50
2023-01-02T23:20:25.591Z,27.90
2023-01-02T23:22:57.759Z,29.20
2023-01-02T23:25:30.171Z,29.10
2023-01-02T23:28:02.384Z,28.00
2023-01-02T23:30:34.620Z,29.80
2023-01-02T23:33:06.935Z,30.90
2023-01-02T23:35:39.169Z,34.90
2023-01-02T23:38:12.051Z,33.30
2023-01-02T23:40:44.356Z,32.50
2023-01-02T23:43:18.009Z,33.40
2023-01-02T23:45:50.317Z,36.70
2023-01-02T23:48:22.989Z,34.30
2023-01-02T23:51:00.881Z,37.00
2023-01-02T23:53:34.471Z,33.10
2023-01-02T23:56:12.229Z,33.50
2023-01-02T23:58:44.553Z,29.00
